Time;durP1;ratioP1;P1;durP2;ratioP2;P2;SDS_P1;SDS_P2;PMS_P1;PMS_P2;Temp;Humidity;BMP_temperature;BMP_pressure;BME280_temperature;BME280_humidity;BME280_pressure;Samples;Min_cycle;Max_cycle;Signal;HPM_P1;HPM_P2
2023/05/06 00:02:28;;;;;;;;;;;;;;;11.51;100.00;101583.94;10499184;28;19924;-65
2023/05/06 00:07:30;;;;;;;;;;;;;;;11.48;100.00;101591.13;10500800;28;19987;-64
2023/05/06 00:12:33;;;;;;;;;;;;;;;11.53;100.00;101587.38;10536718;28;19925;-64
2023/05/06 00:17:35;;;;;;;;;;;;;;;11.79;100.00;101579.97;10498911;28;19951;-65
2023/05/06 00:22:37;;;;;;;;;;;;;;;11.98;100.00;101585.16;10519073;28;19924;-65
2023/05/06 00:27:39;;;;;;;;;;;;;;;11.96;100.00;101575.69;10539860;28;20363;-65
2023/05/06 00:32:42;;;;;;;;;;;;;;;11.97;100.00;101580.00;10537741;28;19931;-65
2023/05/06 00:37:45;;;;;;;;;;;;;;;12.03;100.00;101567.41;10539438;28;19946;-64
2023/05/06 00:42:47;;;;;;;;;;;;;;;11.96;100.00;101570.44;10539565;28;19960;-65
2023/05/06 00:47:51;;;;;;;;;;;;;;;12.04;100.00;101571.75;10544424;28;20019;-64
2023/05/06 00:52:55;;;;;;;;;;;;;;;12.22;100.00;101566.47;10537986;28;20306;-64
2023/05/06 00:57:58;;;;;;;;;;;;;;;11.99;100.00;101555.38;10547594;28;19927;-65
2023/05/06 01:03:00;;;;;;;;;;;;;;;11.87;100.00;101562.06;10547229;28;20002;-65
2023/05/06 01:08:25;;;;;;;;;;;;;;;11.65;100.00;101562.31;10532610;28;19925;-64
2023/05/06 01:13:34;;;;;;;;;;;;;;;11.61;100.00;101568.63;10519096;28;20290;-64
2023/05/06 01:18:36;;;;;;;;;;;;;;;11.56;100.00;101561.91;10510286;28;19925;-64
2023/05/06 01:23:56;;;;;;;;;;;;;;;11.63;100.00;101558.03;10512163;28;19932;-64
2023/05/06 01:29:00;;;;;;;;;;;;;;;11.46;100.00;101554.47;10504945;28;19936;-65
2023/05/06 01:34:09;;;;;;;;;;;;;;;11.38;100.00;101551.41;10527168;28;19928;-65
2023/05/06 01:39:30;;;;;;;;;;;;;;;11.45;100.00;101559.81;10545748;28;19924;-64
2023/05/06 01:44:32;;;;;;;;;;;;;;;11.25;100.00;101552.94;10558872;28;19924;-65
2023/05/06 01:49:34;;;;;;;;;;;;;;;11.25;100.00;101556.38;10561101;28;19947;-64
2023/05/06 01:54:37;;;;;;;;;;;;;;;10.94;100.00;101550.00;10514486;28;19929;-64
2023/05/06 01:59:39;;;;;;;;;;;;;;;10.77;100.00;101561.22;10503462;28;19982;-65
2023/05/06 02:04:41;;;;;;;;;;;;;;;10.74;100.00;101566.63;10503638;28;19932;-64
2023/05/06 02:09:43;;;;;;;;;;;;;;;10.51;100.00;101562.44;10535896;28;19978;-64
2023/05/06 02:14:45;;;;;;;;;;;;;;;10.49;100.00;101566.88;10545026;28;19974;-64
2023/05/06 02:19:47;;;;;;;;;;;;;;;10.48;100.00;101567.78;10544279;28;19924;-64
2023/05/06 02:24:50;;;;;;;;;;;;;;;10.41;100.00;101572.47;10536762;28;19932;-65
2023/05/06 02:29:52;;;;;;;;;;;;;;;10.32;100.00;101580.72;10501617;28;19951;-64
2023/05/06 02:34:54;;;;;;;;;;;;;;;10.23;100.00;101576.69;10501629;28;20376;-65
2023/05/06 02:39:56;;;;;;;;;;;;;;;10.22;100.00;101563.66;10501096;28;19970;-64
2023/05/06 02:44:58;;;;;;;;;;;;;;;10.16;100.00;101564.78;10501290;28;19928;-64
2023/05/06 02:50:01;;;;;;;;;;;;;;;10.08;100.00;101559.03;10501184;28;20325;-65
2023/05/06 02:55:04;;;;;;;;;;;;;;;10.11;100.00;101553.69;10541641;28;20267;-64
2023/05/06 03:00:06;;;;;;;;;;;;;;;10.00;100.00;101550.66;10542687;28;20310;-64
2023/05/06 03:05:08;;;;;;;;;;;;;;;10.09;100.00;101560.75;10524615;28;19999;-64
2023/05/06 03:10:11;;;;;;;;;;;;;;;9.94;100.00;101556.19;10499552;28;20299;-65
2023/05/06 03:15:13;;;;;;;;;;;;;;;9.79;100.00;101553.28;10499966;28;20425;-65
2023/05/06 03:20:15;;;;;;;;;;;;;;;9.76;100.00;101557.78;10500119;28;19929;-65
2023/05/06 03:25:18;;;;;;;;;;;;;;;9.84;100.00;101558.34;10499676;28;20334;-64
2023/05/06 03:30:20;;;;;;;;;;;;;;;9.62;100.00;101548.75;10499514;28;19951;-65
2023/05/06 03:35:22;;;;;;;;;;;;;;;9.64;100.00;101544.31;10499235;28;19925;-65
2023/05/06 03:40:24;;;;;;;;;;;;;;;9.35;100.00;101540.28;10536520;28;20325;-64
2023/05/06 03:45:26;;;;;;;;;;;;;;;9.28;100.00;101555.38;10540898;28;20375;-64
2023/05/06 03:50:29;;;;;;;;;;;;;;;9.37;100.00;101555.91;10540796;28;19928;-64
2023/05/06 03:55:31;;;;;;;;;;;;;;;9.30;100.00;101548.31;10499678;28;19928;-64
2023/05/06 04:00:33;;;;;;;;;;;;;;;9.30;100.00;101548.31;10499118;28;19924;-64
2023/05/06 04:05:35;;;;;;;;;;;;;;;9.44;100.00;101552.13;10499129;28;19924;-64
2023/05/06 04:10:39;;;;;;;;;;;;;;;9.24;100.00;101560.75;10498411;28;20330;-65
2023/05/06 04:15:41;;;;;;;;;;;;;;;9.41;100.00;101558.31;10498563;28;19924;-64
2023/05/06 04:20:49;;;;;;;;;;;;;;;9.39;100.00;101554.91;10498025;28;20363;-65
2023/05/06 04:25:51;;;;;;;;;;;;;;;9.34;100.00;101559.47;10491629;28;19931;-65
2023/05/06 04:30:54;;;;;;;;;;;;;;;9.46;100.00;101572.09;10498523;28;19925;-64
2023/05/06 04:35:56;;;;;;;;;;;;;;;9.58;100.00;101567.25;10497890;28;20432;-65
2023/05/06 04:40:58;;;;;;;;;;;;;;;9.74;100.00;101575.31;10497381;28;19924;-65
2023/05/06 04:46:01;;;;;;;;;;;;;;;9.73;100.00;101578.84;10497931;28;19932;-64
2023/05/06 04:51:04;;;;;;;;;;;;;;;9.66;100.00;101579.09;10497609;28;20401;-64
2023/05/06 04:56:06;;;;;;;;;;;;;;;9.72;100.00;101593.69;10514953;28;19931;-64
2023/05/06 05:01:09;;;;;;;;;;;;;;;9.75;100.00;101597.94;10539846;28;19928;-65
2023/05/06 05:06:12;;;;;;;;;;;;;;;9.92;100.00;101600.72;10539096;28;20325;-65
2023/05/06 05:11:15;;;;;;;;;;;;;;;10.08;100.00;101595.66;10512030;28;19924;-64
2023/05/06 05:16:17;;;;;;;;;;;;;;;10.04;100.00;101613.28;10497715;28;19928;-65
2023/05/06 05:21:19;;;;;;;;;;;;;;;10.49;100.00;101615.75;10496955;28;20410;-64
2023/05/06 05:26:22;;;;;;;;;;;;;;;10.50;100.00;101620.09;10497857;28;19931;-65
2023/05/06 05:31:24;;;;;;;;;;;;;;;10.65;100.00;101618.56;10498021;28;20398;-65
2023/05/06 05:36:26;;;;;;;;;;;;;;;10.78;100.00;101617.94;10504616;28;19932;-65
2023/05/06 05:41:28;;;;;;;;;;;;;;;11.09;100.00;101620.94;10518190;28;19978;-65
2023/05/06 05:46:31;;;;;;;;;;;;;;;11.45;100.00;101613.09;10503695;28;20057;-65
2023/05/06 05:51:33;;;;;;;;;;;;;;;11.65;100.00;101620.00;10520892;28;19930;-65
2023/05/06 05:56:35;;;;;;;;;;;;;;;12.12;100.00;101610.72;10504745;28;19924;-65
2023/05/06 06:01:37;;;;;;;;;;;;;;;12.53;100.00;101606.88;10504912;28;20056;-64
2023/05/06 06:06:39;;;;;;;;;;;;;;;12.90;100.00;101607.56;10515598;28;19924;-65
2023/05/06 06:11:42;;;;;;;;;;;;;;;13.21;100.00;101604.06;10510937;28;19924;-64
2023/05/06 06:16:44;;;;;;;;;;;;;;;13.57;100.00;101605.59;10503188;28;19929;-65
2023/05/06 06:21:46;;;;;;;;;;;;;;;13.77;100.00;101609.72;10538707;28;19924;-65
2023/05/06 06:26:49;;;;;;;;;;;;;;;13.93;100.00;101612.28;10527551;28;19974;-65
2023/05/06 06:31:51;;;;;;;;;;;;;;;14.06;100.00;101622.97;10543752;28;20435;-65
2023/05/06 06:36:53;;;;;;;;;;;;;;;14.48;100.00;101618.69;10514076;28;19972;-65
2023/05/06 06:41:57;;;;;;;;;;;;;;;14.67;100.00;101627.19;10500980;28;19979;-65
2023/05/06 06:46:59;;;;;;;;;;;;;;;14.87;100.00;101619.84;10500515;28;19936;-65
2023/05/06 06:52:01;;;;;;;;;;;;;;;14.70;100.00;101612.16;10500994;28;20393;-65
2023/05/06 06:57:04;;;;;;;;;;;;;;;15.11;100.00;101620.06;10500875;28;20401;-65
2023/05/06 07:02:07;;;;;;;;;;;;;;;15.32;100.00;101625.78;10500620;28;20454;-65
2023/05/06 07:07:09;;;;;;;;;;;;;;;15.44;100.00;101629.44;10501026;28;19928;-65
2023/05/06 07:12:11;;;;;;;;;;;;;;;15.69;100.00;101626.03;10500827;28;19925;-65
2023/05/06 07:17:13;;;;;;;;;;;;;;;15.39;100.00;101613.88;10500042;28;19929;-65
2023/05/06 07:22:16;;;;;;;;;;;;;;;15.74;100.00;101628.38;10499850;28;19925;-65
2023/05/06 07:27:18;;;;;;;;;;;;;;;16.00;100.00;101615.25;10533968;28;19924;-65
2023/05/06 07:32:20;;;;;;;;;;;;;;;16.25;100.00;101622.38;10509106;28;20440;-65
2023/05/06 07:37:22;;;;;;;;;;;;;;;16.67;100.00;101612.41;10499334;28;20336;-65
2023/05/06 07:42:24;;;;;;;;;;;;;;;16.78;100.00;101625.72;10498992;28;19931;-66
2023/05/06 07:47:27;;;;;;;;;;;;;;;16.88;100.00;101626.78;10498283;28;19925;-66
2023/05/06 07:52:30;;;;;;;;;;;;;;;16.25;100.00;101623.19;10496957;28;20359;-65
2023/05/06 07:57:32;;;;;;;;;;;;;;;16.70;100.00;101626.25;10498412;28;19925;-66
2023/05/06 08:02:37;;;;;;;;;;;;;;;17.02;98.26;101625.81;10499303;28;19974;-65
2023/05/06 08:07:40;;;;;;;;;;;;;;;16.85;92.89;101631.47;10490369;28;19970;-66
2023/05/06 08:12:43;;;;;;;;;;;;;;;17.53;94.49;101632.72;10498356;28;19931;-66
2023/05/06 08:17:45;;;;;;;;;;;;;;;17.97;92.27;101630.38;10527524;28;19925;-66
2023/05/06 08:22:47;;;;;;;;;;;;;;;17.87;92.21;101635.56;10498390;28;19924;-66
2023/05/06 08:27:49;;;;;;;;;;;;;;;17.97;91.50;101633.03;10500815;28;19928;-66
2023/05/06 08:32:52;;;;;;;;;;;;;;;17.24;91.15;101634.84;10526789;28;20326;-66
2023/05/06 08:37:54;;;;;;;;;;;;;;;17.91;89.56;101630.88;10505967;28;19977;-66
2023/05/06 08:42:56;;;;;;;;;;;;;;;18.80;84.93;101631.94;10539120;28;19924;-65
2023/05/06 08:47:58;;;;;;;;;;;;;;;18.47;82.87;101616.88;10504152;28;19929;-64
2023/05/06 08:53:01;;;;;;;;;;;;;;;18.66;79.04;101625.09;10498067;28;19956;-67
2023/05/06 08:58:04;;;;;;;;;;;;;;;18.74;79.34;101624.47;10490782;28;20375;-64
2023/05/06 09:03:06;;;;;;;;;;;;;;;19.26;77.70;101624.78;10497326;28;20290;-65
2023/05/06 09:08:08;;;;;;;;;;;;;;;18.90;79.15;101614.34;10541604;28;19928;-66
2023/05/06 09:13:11;;;;;;;;;;;;;;;19.46;77.75;101617.84;10547320;28;19924;-66
2023/05/06 09:18:14;;;;;;;;;;;;;;;19.86;76.66;101612.75;10557310;28;19924;-66
2023/05/06 09:23:17;;;;;;;;;;;;;;;20.55;73.84;101608.66;10535784;28;19931;-66
2023/05/06 09:28:19;;;;;;;;;;;;;;;20.74;70.36;101602.59;10546779;28;19935;-66
2023/05/06 09:33:22;;;;;;;;;;;;;;;20.28;68.61;101600.44;10546401;28;19928;-66
2023/05/06 09:38:24;;;;;;;;;;;;;;;22.29;66.38;101591.31;10542885;28;19924;-66
2023/05/06 09:43:27;;;;;;;;;;;;;;;21.75;62.81;101588.31;10504551;28;19925;-66
2023/05/06 09:48:29;;;;;;;;;;;;;;;21.99;64.39;101587.84;10538027;28;19928;-66
2023/05/06 09:53:31;;;;;;;;;;;;;;;22.82;64.46;101583.47;10524573;28;20272;-66
2023/05/06 09:58:34;;;;;;;;;;;;;;;22.48;62.96;101582.38;10523821;28;19924;-66
2023/05/06 10:03:36;;;;;;;;;;;;;;;21.70;63.30;101586.94;10531532;28;19925;-66
2023/05/06 10:08:39;;;;;;;;;;;;;;;22.31;59.71;101589.31;10483715;28;19924;-66
2023/05/06 10:13:41;;;;;;;;;;;;;;;24.15;58.13;101574.81;10502680;28;19974;-66
2023/05/06 10:18:43;;;;;;;;;;;;;;;25.19;57.32;101571.03;10484495;28;19924;-66
2023/05/06 10:23:51;;;;;;;;;;;;;;;25.14;55.50;101576.06;10484742;28;19925;-66
2023/05/06 10:28:53;;;;;;;;;;;;;;;25.10;52.15;101559.47;10484582;28;19925;-66
2023/05/06 10:33:56;;;;;;;;;;;;;;;24.00;53.46;101561.19;10484436;28;19970;-66
2023/05/06 10:38:59;;;;;;;;;;;;;;;24.70;58.11;101547.66;10482660;28;20383;-66
2023/05/06 10:44:01;;;;;;;;;;;;;;;23.62;52.37;101558.75;10483918;28;20291;-66
2023/05/06 10:49:04;;;;;;;;;;;;;;;25.21;53.69;101544.91;10501874;28;19971;-67
2023/05/06 10:54:10;;;;;;;;;;;;;;;25.71;49.47;101535.03;10530675;22;19924;-66
2023/05/06 10:59:12;;;;;;;;;;;;;;;25.44;52.08;101531.72;10566978;28;20427;-66
2023/05/06 11:04:15;;;;;;;;;;;;;;;24.03;51.24;101542.16;10567427;28;19928;-66
2023/05/06 11:09:18;;;;;;;;;;;;;;;24.93;52.37;101528.28;10566568;28;19969;-66
2023/05/06 11:14:24;;;;;;;;;;;;;;;26.13;50.97;101529.44;10585563;28;19927;-66
2023/05/06 11:19:28;;;;;;;;;;;;;;;26.27;48.00;101527.03;10566215;28;19924;-66
2023/05/06 11:24:40;;;;;;;;;;;;;;;26.27;47.19;101527.84;10568919;28;19928;-66
2023/05/06 11:29:43;;;;;;;;;;;;;;;25.78;46.64;101523.44;10547326;28;20293;-66
2023/05/06 11:34:45;;;;;;;;;;;;;;;26.98;46.47;101516.25;10550508;28;19931;-66
2023/05/06 11:39:47;;;;;;;;;;;;;;;27.54;47.77;101516.84;10522552;28;19924;-66
2023/05/06 11:44:51;;;;;;;;;;;;;;;27.16;45.79;101513.28;10567197;28;19984;-66
2023/05/06 11:49:54;;;;;;;;;;;;;;;27.01;46.44;101510.53;10583058;28;19931;-66
2023/05/06 11:54:56;;;;;;;;;;;;;;;28.00;45.72;101498.91;10582879;28;19924;-66
2023/05/06 11:59:59;;;;;;;;;;;;;;;25.07;45.03;101511.56;10583428;28;19924;-66
2023/05/06 12:05:01;;;;;;;;;;;;;;;27.38;48.30;101507.06;10583231;28;19974;-66
2023/05/06 12:10:04;;;;;;;;;;;;;;;25.06;46.96;101514.41;10582027;28;19976;-66
2023/05/06 12:15:07;;;;;;;;;;;;;;;25.09;45.08;101501.53;10582926;28;19923;-66
2023/05/06 12:20:10;;;;;;;;;;;;;;;24.36;45.26;101510.19;10582880;28;19923;-66
2023/05/06 12:25:13;;;;;;;;;;;;;;;24.91;45.72;101509.69;10582776;28;19924;-66
2023/05/06 12:30:20;;;;;;;;;;;;;;;24.46;46.58;101503.72;10581511;28;19924;-66
2023/05/06 12:35:23;;;;;;;;;;;;;;;25.78;44.03;101506.53;10580604;28;19927;-67
2023/05/06 12:40:25;;;;;;;;;;;;;;;24.74;45.60;101497.28;10583953;28;19924;-67
2023/05/06 12:45:28;;;;;;;;;;;;;;;24.76;48.58;101497.97;10590366;28;20327;-66
2023/05/06 12:50:40;;;;;;;;;;;;;;;24.82;46.72;101505.34;10590816;28;20018;-66
2023/05/06 12:55:44;;;;;;;;;;;;;;;24.37;47.52;101504.69;10589888;28;19931;-67
2023/05/06 13:00:46;;;;;;;;;;;;;;;24.91;44.67;101498.16;10589928;28;19975;-66
2023/05/06 13:05:50;;;;;;;;;;;;;;;25.37;48.98;101491.34;10589641;28;20270;-66
2023/05/06 13:10:52;;;;;;;;;;;;;;;25.24;46.23;101490.97;10589426;28;20382;-67
2023/05/06 13:15:55;;;;;;;;;;;;;;;23.16;50.70;101492.03;10587918;28;20439;-66
2023/05/06 13:20:59;;;;;;;;;;;;;;;24.29;46.76;101494.81;10589618;28;19931;-66
2023/05/06 13:26:04;;;;;;;;;;;;;;;24.83;46.05;101488.25;10589415;28;20010;-66
2023/05/06 13:31:07;;;;;;;;;;;;;;;25.65;46.89;101485.59;10589847;28;19924;-66
2023/05/06 13:36:09;;;;;;;;;;;;;;;25.87;45.39;101483.19;10587372;28;19938;-66
2023/05/06 13:41:11;;;;;;;;;;;;;;;24.22;48.01;101479.53;10554112;28;19927;-66
2023/05/06 13:46:14;;;;;;;;;;;;;;;24.28;48.74;101474.38;10567715;28;19924;-66
2023/05/06 13:51:16;;;;;;;;;;;;;;;25.13;49.76;101484.13;10587500;28;20307;-66
2023/05/06 13:56:18;;;;;;;;;;;;;;;24.39;49.15;101470.56;10586985;28;19928;-66
2023/05/06 14:01:21;;;;;;;;;;;;;;;24.26;49.17;101465.69;10587350;28;20451;-66
2023/05/06 14:06:23;;;;;;;;;;;;;;;23.29;49.95;101466.78;10587809;28;19931;-66
2023/05/06 14:11:25;;;;;;;;;;;;;;;23.15;51.90;101468.19;10587453;28;19930;-66
2023/05/06 14:16:27;;;;;;;;;;;;;;;24.34;50.43;101456.84;10587182;28;19923;-66
2023/05/06 14:21:30;;;;;;;;;;;;;;;24.58;48.70;101448.09;10586319;28;19924;-66
2023/05/06 14:26:33;;;;;;;;;;;;;;;23.90;48.80;101455.16;10564470;28;19923;-66
2023/05/06 14:31:35;;;;;;;;;;;;;;;24.11;51.67;101441.38;10576294;28;19924;-66
2023/05/06 14:36:37;;;;;;;;;;;;;;;23.63;52.82;101434.78;10582388;28;19931;-66
2023/05/06 14:41:39;;;;;;;;;;;;;;;23.14;49.62;101443.28;10542108;28;19924;-66
2023/05/06 14:46:41;;;;;;;;;;;;;;;22.35;51.39;101444.84;10544000;28;19973;-66
2023/05/06 14:51:44;;;;;;;;;;;;;;;22.95;50.06;101436.28;10543456;28;19931;-66
2023/05/06 14:56:48;;;;;;;;;;;;;;;22.87;50.52;101433.53;10544677;28;19977;-66
2023/05/06 15:01:50;;;;;;;;;;;;;;;23.00;49.25;101425.13;10543268;28;19931;-66
2023/05/06 15:06:55;;;;;;;;;;;;;;;22.95;47.71;101427.44;10543716;28;19977;-66
2023/05/06 15:11:57;;;;;;;;;;;;;;;23.52;50.01;101422.53;10542397;28;19924;-66
2023/05/06 15:16:59;;;;;;;;;;;;;;;23.17;47.50;101418.94;10542754;28;19924;-66
2023/05/06 15:22:02;;;;;;;;;;;;;;;22.91;48.50;101423.38;10575986;28;19924;-66
2023/05/06 15:27:11;;;;;;;;;;;;;;;23.94;49.86;101420.94;10362629;28;19913;-66
2023/05/06 15:32:14;;;;;;;;;;;;;;;23.79;48.93;101426.00;10362197;28;20303;-66
2023/05/06 15:37:18;;;;;;;;;;;;;;;23.00;47.09;101419.81;10361911;28;19925;-66
2023/05/06 15:42:20;;;;;;;;;;;;;;;23.12;49.08;101425.75;10360900;28;19969;-66
2023/05/06 15:47:22;;;;;;;;;;;;;;;22.50;49.51;101442.50;10362364;28;19978;-66
2023/05/06 15:52:25;;;;;;;;;;;;;;;22.94;51.06;101433.75;10360703;28;19936;-66
2023/05/06 15:57:28;;;;;;;;;;;;;;;22.25;50.03;101428.88;10361982;28;19925;-66
2023/05/06 16:02:34;;;;;;;;;;;;;;;22.31;50.53;101434.63;10359557;28;19930;-66
2023/05/06 16:07:36;;;;;;;;;;;;;;;22.73;51.44;101428.72;10362249;28;20009;-66
2023/05/06 16:12:39;;;;;;;;;;;;;;;22.18;51.19;101438.47;10361632;28;19930;-66
2023/05/06 16:17:41;;;;;;;;;;;;;;;22.22;52.08;101434.50;10343261;28;19926;-66
2023/05/06 16:22:48;;;;;;;;;;;;;;;22.23;51.14;101433.50;10357033;28;19933;-66
2023/05/06 16:27:50;;;;;;;;;;;;;;;22.11;51.60;101432.03;10347219;28;19933;-66
2023/05/06 16:32:52;;;;;;;;;;;;;;;21.76;51.87;101432.75;10320042;28;20373;-66
2023/05/06 16:37:55;;;;;;;;;;;;;;;21.88;52.64;101437.75;10296607;28;20017;-66
2023/05/06 16:42:57;;;;;;;;;;;;;;;21.76;53.18;101433.59;10293538;28;19933;-66
2023/05/06 16:47:59;;;;;;;;;;;;;;;21.35;53.21;101448.97;10292779;28;19926;-66
2023/05/06 16:53:01;;;;;;;;;;;;;;;20.76;60.45;101462.28;10293125;28;19972;-66
2023/05/06 16:58:04;;;;;;;;;;;;;;;20.21;62.46;101452.06;10324215;28;19930;-65
2023/05/06 17:03:06;;;;;;;;;;;;;;;19.52;66.62;101465.97;10292252;28;19926;-65
2023/05/06 17:08:09;;;;;;;;;;;;;;;19.40;67.09;101470.50;10292817;28;19934;-74
2023/05/06 17:13:12;;;;;;;;;;;;;;;19.37;69.39;101486.69;10308814;28;19932;-73
2023/05/06 17:18:14;;;;;;;;;;;;;;;19.05;70.91;101487.56;10323563;28;20020;-74
2023/05/06 17:23:16;;;;;;;;;;;;;;;18.52;74.99;101495.38;10303810;28;19933;-73
2023/05/06 17:28:19;;;;;;;;;;;;;;;18.36;75.70;101501.06;10319591;28;19930;-74
2023/05/06 17:33:21;;;;;;;;;;;;;;;18.36;77.42;101499.25;10331237;28;19933;-74
2023/05/06 17:38:23;;;;;;;;;;;;;;;18.56;78.36;101491.53;10327386;28;19926;-74
2023/05/06 17:43:26;;;;;;;;;;;;;;;17.87;86.98;101489.00;10332145;28;19925;-74
2023/05/06 17:48:28;;;;;;;;;;;;;;;18.06;87.96;101497.22;10328755;28;19933;-74
2023/05/06 17:53:32;;;;;;;;;;;;;;;17.75;94.04;101498.69;10330499;28;19926;-74
2023/05/06 17:58:35;;;;;;;;;;;;;;;17.80;91.67;101494.75;10331401;28;19926;-74
2023/05/06 18:03:37;;;;;;;;;;;;;;;17.42;100.00;101500.31;10330511;28;19926;-74
2023/05/06 18:08:40;;;;;;;;;;;;;;;17.31;100.00;101502.91;10326258;28;19930;-74
2023/05/06 18:13:42;;;;;;;;;;;;;;;17.25;100.00;101498.94;10297555;28;19933;-72
2023/05/06 18:18:45;;;;;;;;;;;;;;;17.12;100.00;101500.81;10308900;28;19926;-72
2023/05/06 18:23:47;;;;;;;;;;;;;;;17.02;100.00;101525.28;10330258;28;19970;-71
2023/05/06 18:28:50;;;;;;;;;;;;;;;16.84;100.00;101530.09;10330587;28;19926;-71
2023/05/06 18:33:53;;;;;;;;;;;;;;;17.00;100.00;101529.00;10305315;28;19926;-72
2023/05/06 18:38:55;;;;;;;;;;;;;;;16.71;100.00;101532.78;10319612;28;20584;-71
2023/05/06 18:43:57;;;;;;;;;;;;;;;16.83;100.00;101531.03;10329997;28;19930;-70
2023/05/06 18:48:59;;;;;;;;;;;;;;;16.71;100.00;101530.13;10329247;28;19930;-71
2023/05/06 18:54:02;;;;;;;;;;;;;;;16.86;100.00;101530.00;10311920;28;19926;-71
2023/05/06 18:59:04;;;;;;;;;;;;;;;17.13;100.00;101531.59;10326640;28;19926;-71
2023/05/06 19:04:06;;;;;;;;;;;;;;;16.65;100.00;101525.28;10306380;28;19926;-71
2023/05/06 19:09:10;;;;;;;;;;;;;;;16.76;100.00;101518.34;10310570;28;20338;-70
2023/05/06 19:14:12;;;;;;;;;;;;;;;16.71;100.00;101514.25;10296323;28;19932;-70
2023/05/06 19:19:14;;;;;;;;;;;;;;;16.32;100.00;101505.59;10300172;28;20385;-71
2023/05/06 19:24:16;;;;;;;;;;;;;;;16.36;97.26;101500.91;10314863;28;20388;-70
2023/05/06 19:29:19;;;;;;;;;;;;;;;16.56;98.51;101506.56;10319113;28;19929;-71
2023/05/06 19:34:21;;;;;;;;;;;;;;;16.31;98.14;101506.53;10328474;28;19925;-71
2023/05/06 19:39:23;;;;;;;;;;;;;;;16.29;99.46;101505.78;10328007;28;19975;-71
2023/05/06 19:44:25;;;;;;;;;;;;;;;16.35;93.60;101499.22;10344431;28;19951;-71
2023/05/06 19:49:29;;;;;;;;;;;;;;;16.13;97.81;101500.72;10307281;28;19926;-71
2023/05/06 19:54:31;;;;;;;;;;;;;;;16.26;98.32;101502.53;10324844;28;19926;-70
2023/05/06 19:59:33;;;;;;;;;;;;;;;16.28;98.66;101493.53;10315262;28;19926;-71
2023/05/06 20:04:36;;;;;;;;;;;;;;;16.19;100.00;101503.88;10310721;28;19926;-71
2023/05/06 20:09:38;;;;;;;;;;;;;;;15.94;100.00;101510.88;10298544;28;20426;-71
2023/05/06 20:14:40;;;;;;;;;;;;;;;16.09;100.00;101511.63;10317722;28;19926;-71
2023/05/06 20:19:43;;;;;;;;;;;;;;;16.07;100.00;101518.78;10313482;28;19926;-72
2023/05/06 20:24:45;;;;;;;;;;;;;;;16.10;100.00;101526.50;10331647;28;20300;-72
2023/05/06 20:29:50;;;;;;;;;;;;;;;15.95;100.00;101513.44;10330826;28;19951;-72
2023/05/06 20:34:52;;;;;;;;;;;;;;;15.96;100.00;101527.47;10314547;28;19973;-72
2023/05/06 20:39:55;;;;;;;;;;;;;;;15.93;100.00;101531.16;10318614;28;19926;-72
2023/05/06 20:44:57;;;;;;;;;;;;;;;16.01;100.00;101545.66;10331783;28;19925;-72
2023/05/06 20:49:59;;;;;;;;;;;;;;;16.06;100.00;101548.81;10333646;28;19930;-72
2023/05/06 20:55:02;;;;;;;;;;;;;;;15.98;100.00;101563.38;10333460;28;19926;-73
2023/05/06 21:00:06;;;;;;;;;;;;;;;15.91;100.00;101564.75;10329741;28;20334;-72
2023/05/06 21:05:08;;;;;;;;;;;;;;;15.67;100.00;101567.22;10329904;28;19952;-71
2023/05/06 21:10:11;;;;;;;;;;;;;;;15.32;100.00;101583.56;10331224;28;20016;-72
2023/05/06 21:15:13;;;;;;;;;;;;;;;15.54;100.00;101579.53;10331554;28;19933;-71
2023/05/06 21:20:16;;;;;;;;;;;;;;;15.68;100.00;101565.41;10297811;28;19926;-72
2023/05/06 21:25:18;;;;;;;;;;;;;;;15.62;100.00;101564.03;10292487;28;19941;-71
2023/05/06 21:30:20;;;;;;;;;;;;;;;15.62;100.00;101558.75;10292100;28;19926;-71
2023/05/06 21:35:23;;;;;;;;;;;;;;;15.63;100.00;101578.06;10310716;28;19979;-71
2023/05/06 21:40:25;;;;;;;;;;;;;;;15.68;100.00;101570.69;10491748;28;20420;-71
2023/05/06 21:45:28;;;;;;;;;;;;;;;15.56;100.00;101567.91;10312954;28;19971;-72
2023/05/06 21:50:30;;;;;;;;;;;;;;;15.45;100.00;101569.56;10313270;28;19930;-71
2023/05/06 21:55:32;;;;;;;;;;;;;;;15.33;100.00;101571.22;10308724;28;19993;-72
2023/05/06 22:00:35;;;;;;;;;;;;;;;15.17;100.00;101574.84;10291198;28;19926;-72
2023/05/06 22:05:37;;;;;;;;;;;;;;;15.17;100.00;101566.09;10323951;28;19933;-72
2023/05/06 22:10:39;;;;;;;;;;;;;;;15.40;100.00;101577.81;10330245;28;19936;-71
2023/05/06 22:15:42;;;;;;;;;;;;;;;15.19;100.00;101577.41;10330267;28;20262;-71
2023/05/06 22:20:45;;;;;;;;;;;;;;;15.10;100.00;101573.56;10323412;28;19926;-71
2023/05/06 22:25:47;;;;;;;;;;;;;;;15.24;100.00;101570.88;10328874;28;19926;-71
2023/05/06 22:30:50;;;;;;;;;;;;;;;15.49;100.00;101563.16;10330502;28;19937;-71
2023/05/06 22:35:52;;;;;;;;;;;;;;;15.65;100.00;101544.50;10292749;28;19933;-71
2023/05/06 22:40:55;;;;;;;;;;;;;;;15.59;100.00;101548.41;10316899;28;19925;-71
2023/05/06 22:45:57;;;;;;;;;;;;;;;15.33;100.00;101537.78;10311020;28;19925;-71
2023/05/06 22:51:02;;;;;;;;;;;;;;;15.27;100.00;101540.81;10329910;28;19926;-71
2023/05/06 22:56:04;;;;;;;;;;;;;;;15.27;100.00;101539.97;10326766;28;19926;-71
2023/05/06 23:01:06;;;;;;;;;;;;;;;15.26;100.00;101548.84;10328468;28;19996;-71
2023/05/06 23:06:09;;;;;;;;;;;;;;;15.27;100.00;101546.09;10326265;28;20377;-71
2023/05/06 23:11:11;;;;;;;;;;;;;;;15.23;100.00;101552.50;10408748;23;19929;-68
2023/05/06 23:16:14;;;;;;;;;;;;;;;15.24;100.00;101547.13;10387837;28;20395;-67
2023/05/06 23:21:16;;;;;;;;;;;;;;;15.28;100.00;101549.56;10414976;28;20359;-67
2023/05/06 23:26:19;;;;;;;;;;;;;;;15.30;100.00;101545.03;10415322;28;19933;-67
2023/05/06 23:31:22;;;;;;;;;;;;;;;15.23;100.00;101547.22;10415343;28;19929;-67
2023/05/06 23:36:24;;;;;;;;;;;;;;;15.08;100.00;101546.44;10414736;28;20331;-67
2023/05/06 23:41:27;;;;;;;;;;;;;;;14.84;100.00;101562.03;10413360;28;19971;-67
2023/05/06 23:46:29;;;;;;;;;;;;;;;15.07;100.00;101546.56;10417559;28;20277;-67
2023/05/06 23:51:31;;;;;;;;;;;;;;;15.14;100.00;101546.03;10423220;28;20012;-67
2023/05/06 23:56:33;;;;;;;;;;;;;;;14.95;100.00;101551.66;10420717;28;19986;-67
